Time;durP1;ratioP1;P1;durP2;ratioP2;P2;SDS_P1;SDS_P2;PMS_P1;PMS_P2;Temp;Humidity;BMP_temperature;BMP_pressure;BME280_temperature;BME280_humidity;BME280_pressure;Samples;Min_cycle;Max_cycle;Signal;HPM_P1;HPM_P2
2020/12/02 00:00:34;;;;;;;10.18;8.10;;;;;;;2.97;74.62;101656.17;1712734;81;21187;-41
2020/12/02 00:03:22;;;;;;;9.65;7.05;;;;;;;2.97;74.63;101650.90;1718074;82;21189;-41
2020/12/02 00:05:53;;;;;;;10.25;7.05;;;;;;;2.97;74.65;101659.70;1745891;80;21180;-42
2020/12/02 00:08:32;;;;;;;10.00;7.05;;;;;;;2.98;74.64;101652.66;1718974;81;21182;-41
2020/12/02 00:11:01;;;;;;;10.13;7.50;;;;;;;2.99;74.63;101660.98;1642006;85;21612;-42
2020/12/02 00:13:32;;;;;;;10.68;7.28;;;;;;;2.97;74.66;101664.98;1643748;85;21248;-41
2020/12/02 00:16:01;;;;;;;8.95;6.95;;;;;;;2.96;74.68;101653.11;1648686;85;21217;-41
2020/12/02 00:18:28;;;;;;;10.25;7.15;;;;;;;2.96;74.66;101655.75;1632720;86;21174;-42
2020/12/02 00:20:56;;;;;;;9.98;6.97;;;;;;;2.96;74.65;101650.03;1643764;85;21367;-42
2020/12/02 00:23:24;;;;;;;8.10;5.78;;;;;;;2.94;74.59;101646.98;1617465;86;21220;-38
2020/12/02 00:25:51;;;;;;;12.37;6.55;;;;;;;2.92;74.69;101656.65;1648114;84;22274;-42
2020/12/02 00:28:19;;;;;;;9.58;6.62;;;;;;;2.89;74.79;101647.45;1653137;84;21221;-41
2020/12/02 00:30:47;;;;;;;9.48;6.70;;;;;;;2.88;74.78;101652.31;1688077;83;21168;-48
2020/12/02 00:33:22;;;;;;;9.45;7.08;;;;;;;2.90;74.79;101655.78;1689767;83;21173;-41
2020/12/02 00:35:51;;;;;;;9.28;6.83;;;;;;;2.90;74.80;101651.83;1681721;83;21189;-39
2020/12/02 00:38:18;;;;;;;7.92;5.47;;;;;;;2.87;74.77;101656.69;1653148;84;21333;-42
2020/12/02 00:40:46;;;;;;;7.72;5.40;;;;;;;2.88;74.77;101658.45;1652068;85;21892;-40
2020/12/02 00:43:17;;;;;;;9.55;6.72;;;;;;;2.89;74.82;101661.95;1622548;86;21199;-41
2020/12/02 00:45:47;;;;;;;9.30;7.12;;;;;;;2.90;74.84;101663.69;1618161;86;21661;-42
2020/12/02 00:48:21;;;;;;;8.33;6.00;;;;;;;2.90;74.78;101662.38;1671165;83;21200;-42
2020/12/02 00:50:51;;;;;;;8.20;5.72;;;;;;;2.91;74.74;101656.23;1747874;80;21157;-41
2020/12/02 00:53:23;;;;;;;8.10;6.05;;;;;;;2.91;74.75;101653.15;1718259;81;21179;-43
2020/12/02 00:55:52;;;;;;;9.08;6.53;;;;;;;2.90;74.75;101654.05;1703229;81;21174;-41
2020/12/02 00:58:43;;;;;;;9.35;6.20;;;;;;;2.93;74.74;101654.02;1710029;82;21217;-40
2020/12/02 01:01:13;;;;;;;;;;;;;;;2.93;74.71;101650.52;1724587;82;21613;-42
2020/12/02 01:03:41;;;;;;;13.45;8.88;;;;;;;2.97;74.69;101652.22;1722574;82;20201;-41
2020/12/02 01:06:10;;;;;;;11.73;7.62;;;;;;;2.98;74.61;101655.30;1714951;81;21177;-46
2020/12/02 01:08:41;;;;;;;11.18;7.37;;;;;;;2.95;74.63;101652.70;1715233;81;21640;-41
2020/12/02 01:11:26;;;;;;;9.30;6.72;;;;;;;2.98;74.58;101653.53;1722315;81;21201;-44
2020/12/02 01:13:57;;;;;;;8.73;6.05;;;;;;;2.99;74.50;101653.95;1739514;80;21588;-48
2020/12/02 01:16:27;;;;;;;;;;;;;;;2.99;74.38;101655.27;1680052;82;21196;-40
2020/12/02 01:18:56;;;;;;;11.83;6.83;;;;;;;2.99;74.38;101650.45;1704838;82;20164;-42
2020/12/02 01:21:43;;;;;;;7.92;6.03;;;;;;;2.96;74.33;101652.66;1709582;82;21162;-42
2020/12/02 01:24:15;;;;;;;9.33;6.70;;;;;;;2.94;74.34;101654.88;1713705;82;21312;-42
2020/12/02 01:26:46;;;;;;;7.80;5.50;;;;;;;2.94;74.21;101650.48;1724945;80;21142;-43
2020/12/02 01:29:17;;;;;;;8.48;6.17;;;;;;;2.93;74.13;101651.38;1708407;81;21601;-43
2020/12/02 01:31:47;;;;;;;8.63;5.70;;;;;;;2.93;74.02;101647.88;1702963;82;21882;-40
2020/12/02 01:34:15;;;;;;;7.28;5.90;;;;;;;2.90;74.02;101642.19;1706323;82;21187;-42
2020/12/02 01:37:19;;;;;;;8.83;6.85;;;;;;;2.87;74.02;101642.64;1706249;82;21177;-42
2020/12/02 01:39:57;;;;;;;7.28;5.58;;;;;;;2.87;74.13;101634.28;1707868;82;21190;-43
2020/12/02 01:42:25;;;;;;;8.73;6.58;;;;;;;2.88;74.15;101633.87;1738042;80;21138;-41
2020/12/02 01:44:52;;;;;;;9.48;6.15;;;;;;;2.87;74.16;101636.05;1720872;81;21176;-42
2020/12/02 01:47:44;;;;;;;11.10;7.42;;;;;;;2.88;74.08;101631.23;1707713;82;21184;-43
2020/12/02 01:50:15;;;;;;;;;;;;;;;2.85;74.08;101631.23;1713359;81;21167;-42
2020/12/02 01:52:51;;;;;;;8.68;6.40;;;;;;;2.84;74.16;101630.81;1714841;81;20167;-43
2020/12/02 01:55:24;;;;;;;10.82;7.12;;;;;;;2.86;74.05;101633.00;1719099;82;21185;-41
2020/12/02 01:57:53;;;;;;;9.40;6.70;;;;;;;2.86;74.00;101635.63;1719877;82;21854;-40
2020/12/02 02:00:24;;;;;;;9.73;7.35;;;;;;;2.84;74.07;101629.05;1694352;83;21249;-38
2020/12/02 02:03:06;;;;;;;10.98;7.87;;;;;;;2.83;74.01;101634.35;1693784;81;22097;-44
2020/12/02 02:05:58;;;;;;;9.63;6.65;;;;;;;2.83;73.98;101626.45;1716318;80;21202;-43
2020/12/02 02:08:31;;;;;;;9.88;6.92;;;;;;;2.83;74.03;101626.45;1709904;81;21157;-45
2020/12/02 02:11:02;;;;;;;8.95;6.80;;;;;;;2.83;73.92;101619.41;1711420;82;21212;-45
2020/12/02 02:14:08;;;;;;;;;;;;;;;2.81;74.00;101623.36;1706731;83;21168;-43
2020/12/02 02:16:44;;;;;;;9.33;5.87;;;;;;;2.81;73.97;101619.86;1713736;81;20943;-44
2020/12/02 02:19:24;;;;;;;8.83;6.70;;;;;;;2.78;73.95;101619.89;1705509;82;21164;-42
2020/12/02 02:21:57;;;;;;;9.28;6.55;;;;;;;2.76;74.04;101615.94;1711195;82;21158;-42
2020/12/02 02:24:25;;;;;;;9.83;6.62;;;;;;;2.76;74.08;101616.39;1715561;82;21181;-42
2020/12/02 02:26:54;;;;;;;9.20;6.17;;;;;;;2.76;74.03;101621.21;1712173;82;21194;-45
2020/12/02 02:29:26;;;;;;;9.00;6.45;;;;;;;2.76;74.03;101618.58;1713095;83;21214;-43
2020/12/02 02:32:21;;;;;;;10.05;7.42;;;;;;;2.77;73.95;101620.76;1722229;81;21437;-41
2020/12/02 02:34:55;;;;;;;8.50;6.45;;;;;;;2.76;73.82;101626.48;1720094;81;21170;-44
2020/12/02 02:37:27;;;;;;;8.13;5.80;;;;;;;2.75;73.77;101622.11;1723524;82;21141;-41
2020/12/02 02:39:55;;;;;;;10.35;6.40;;;;;;;2.72;73.77;101627.83;1719300;82;21168;-40
2020/12/02 02:42:48;;;;;;;9.85;6.60;;;;;;;2.70;73.75;101620.41;1712844;82;21180;-41
2020/12/02 02:45:25;;;;;;;11.03;6.28;;;;;;;2.69;73.71;101628.72;1716963;82;21669;-43
2020/12/02 02:47:56;;;;;;;9.23;6.30;;;;;;;2.69;73.73;101627.86;1740719;80;21142;-40
2020/12/02 02:50:25;;;;;;;7.85;5.55;;;;;;;2.71;73.81;101630.05;1733958;80;21164;-42
2020/12/02 02:52:52;;;;;;;7.75;5.72;;;;;;;2.72;73.86;101623.45;1721816;82;21189;-42
2020/12/02 02:55:22;;;;;;;10.63;6.85;;;;;;;2.74;73.87;101630.88;1713828;82;21183;-43
2020/12/02 02:57:50;;;;;;;10.32;6.65;;;;;;;2.74;73.93;101621.66;1720697;81;21185;-42
2020/12/02 03:00:23;;;;;;;9.95;7.08;;;;;;;2.73;73.96;101631.78;1712161;81;21238;-39
2020/12/02 03:02:50;;;;;;;8.98;6.40;;;;;;;2.73;73.85;101633.09;1720235;82;21189;-44
2020/12/02 03:05:19;;;;;;;10.78;7.37;;;;;;;2.72;73.68;101637.05;1721039;81;21153;-39
2020/12/02 03:07:51;;;;;;;11.08;7.53;;;;;;;2.69;73.63;101636.63;1732648;80;22204;-38
2020/12/02 03:10:21;;;;;;;10.23;6.78;;;;;;;2.66;73.57;101642.38;1728304;80;21414;-39
2020/12/02 03:12:49;;;;;;;9.50;6.87;;;;;;;2.63;73.62;101640.64;1745351;80;21180;-43
2020/12/02 03:15:17;;;;;;;9.68;6.80;;;;;;;2.62;73.57;101643.27;1716800;82;21147;-42
2020/12/02 03:17:46;;;;;;;8.18;5.85;;;;;;;2.59;73.67;101642.85;1724380;82;21190;-39
2020/12/02 03:20:20;;;;;;;11.55;7.22;;;;;;;2.58;73.70;101638.03;1723296;82;21185;-41
2020/12/02 03:22:48;;;;;;;9.95;6.87;;;;;;;2.58;73.78;101634.53;1738909;81;21145;-39
2020/12/02 03:25:20;;;;;;;8.25;5.62;;;;;;;2.59;73.72;101638.45;1738679;80;21223;-41
2020/12/02 03:27:48;;;;;;;8.08;5.70;;;;;;;2.58;73.78;101634.53;1706438;82;21913;-43
2020/12/02 03:30:17;;;;;;;13.58;7.95;;;;;;;2.57;73.81;101634.08;1717965;82;21432;-43
2020/12/02 03:32:44;;;;;;;10.63;7.17;;;;;;;2.57;73.74;101640.66;1711023;82;21172;-43
2020/12/02 03:35:12;;;;;;;10.43;6.85;;;;;;;2.57;73.68;101643.30;1741719;80;21648;-41
2020/12/02 03:37:39;;;;;;;13.22;8.18;;;;;;;2.55;73.60;101639.38;1715965;82;21709;-43
2020/12/02 03:40:08;;;;;;;12.80;8.05;;;;;;;2.55;73.64;101641.14;1724958;81;21161;-39
2020/12/02 03:42:35;;;;;;;9.05;6.90;;;;;;;2.52;73.53;101643.77;1718890;82;21211;-42
2020/12/02 03:45:07;;;;;;;12.05;7.42;;;;;;;2.51;73.47;101643.36;1712271;82;21184;-40
2020/12/02 03:47:35;;;;;;;9.50;7.08;;;;;;;2.50;73.48;101641.62;1703849;82;21186;-40
2020/12/02 03:50:05;;;;;;;12.03;7.35;;;;;;;2.50;73.53;101640.30;1688562;82;21173;-39
2020/12/02 03:52:33;;;;;;;13.10;8.83;;;;;;;2.49;73.42;101636.77;1713693;82;21130;-42
2020/12/02 03:55:00;;;;;;;13.78;9.38;;;;;;;2.50;73.41;101636.35;1705697;82;21171;-40
2020/12/02 03:57:28;;;;;;;12.23;8.88;;;;;;;2.49;73.14;101634.59;1713628;82;21790;-43
2020/12/02 03:59:56;;;;;;;14.53;8.53;;;;;;;2.48;73.04;101635.48;1721293;81;21150;-43
2020/12/02 04:02:24;;;;;;;14.40;9.48;;;;;;;2.45;73.02;101635.52;1718360;82;21673;-41
2020/12/02 04:04:51;;;;;;;14.07;7.95;;;;;;;2.41;72.93;101635.95;1713675;81;21915;-39
2020/12/02 04:07:19;;;;;;;12.70;8.98;;;;;;;2.39;73.03;101641.66;1716597;82;21197;-41
2020/12/02 04:09:48;;;;;;;13.70;8.45;;;;;;;2.36;73.00;101641.69;1718148;82;21684;-42
2020/12/02 04:12:15;;;;;;;13.38;9.28;;;;;;;2.34;73.04;101644.36;1711477;82;21154;-41
2020/12/02 04:14:44;;;;;;;12.68;8.35;;;;;;;2.31;72.98;101643.03;1715237;81;21205;-41
2020/12/02 04:17:11;;;;;;;14.20;8.10;;;;;;;2.30;72.92;101645.25;1700445;83;21239;-44
2020/12/02 04:19:39;;;;;;;11.83;8.03;;;;;;;2.26;72.97;101647.90;1708236;82;21185;-40
2020/12/02 04:22:06;;;;;;;13.45;7.70;;;;;;;2.24;73.00;101649.21;1706395;82;21177;-43
2020/12/02 04:24:34;;;;;;;13.30;7.35;;;;;;;2.21;73.02;101643.97;1747147;80;21142;-43
2020/12/02 04:27:01;;;;;;;11.70;7.00;;;;;;;2.22;73.08;101641.79;1731987;81;21117;-42
2020/12/02 04:29:28;;;;;;;12.05;8.30;;;;;;;2.24;73.13;101641.77;1707718;81;21159;-38
2020/12/02 04:31:58;;;;;;;13.65;8.43;;;;;;;2.26;73.19;101643.50;1720389;82;21154;-51
2020/12/02 04:34:26;;;;;;;11.18;7.45;;;;;;;2.29;73.22;101638.25;1719764;81;21125;-42
2020/12/02 04:36:53;;;;;;;11.18;7.25;;;;;;;2.29;73.20;101642.19;1720353;81;21159;-38
2020/12/02 04:39:21;;;;;;;15.65;8.68;;;;;;;2.29;73.15;101639.98;1743199;80;21197;-43
2020/12/02 04:41:48;;;;;;;14.90;9.13;;;;;;;2.28;73.14;101639.55;1748029;80;21550;-44
2020/12/02 04:44:16;;;;;;;15.80;8.98;;;;;;;2.26;73.11;101642.63;1706867;82;21605;-45
2020/12/02 04:46:43;;;;;;;13.00;9.23;;;;;;;2.27;73.14;101643.95;1747582;80;21186;-42
2020/12/02 04:49:26;;;;;;;14.78;9.20;;;;;;;2.28;73.12;101642.19;1736841;80;21161;-44
2020/12/02 04:52:04;;;;;;;14.10;7.95;;;;;;;2.28;73.06;101642.19;1712769;81;21137;-44
2020/12/02 04:54:32;;;;;;;11.57;8.30;;;;;;;2.27;72.83;101638.69;1716213;81;21567;-41
2020/12/02 04:56:59;;;;;;;13.43;9.43;;;;;;;2.25;72.75;101640.45;1719831;81;21193;-42
2020/12/02 04:59:40;;;;;;;17.17;9.20;;;;;;;2.23;72.70;101642.21;1720141;82;21652;-44
2020/12/02 05:02:10;;;;;;;14.47;10.03;;;;;;;2.21;72.55;101644.42;1708604;81;21319;-42
2020/12/02 05:04:37;;;;;;;14.70;8.88;;;;;;;2.19;72.53;101643.09;1671445;82;21149;-41
2020/12/02 05:07:14;;;;;;;16.80;9.88;;;;;;;2.19;72.59;101645.73;1723992;81;21161;-43
2020/12/02 05:10:08;;;;;;;14.73;9.10;;;;;;;2.19;72.66;101643.55;1719356;81;21157;-42
2020/12/02 05:12:45;;;;;;;15.85;9.60;;;;;;;2.19;72.59;101643.09;1703456;82;21169;-42
2020/12/02 05:15:27;;;;;;;17.65;10.08;;;;;;;2.18;72.56;101635.23;1705280;82;21173;-43
2020/12/02 05:18:19;;;;;;;13.43;8.85;;;;;;;2.15;72.47;101643.57;1678558;83;21192;-42
2020/12/02 05:21:20;;;;;;;17.27;8.25;;;;;;;2.10;72.54;101642.72;1709761;82;21217;-42
2020/12/02 05:24:14;;;;;;;11.38;8.28;;;;;;;2.10;72.61;101651.94;1742928;80;21703;-43
2020/12/02 05:26:45;;;;;;;16.27;8.70;;;;;;;2.11;72.49;101655.44;1713686;81;21176;-42
2020/12/02 05:29:51;;;;;;;14.13;8.55;;;;;;;2.08;72.47;101656.33;1717213;81;21150;-44
2020/12/02 05:32:25;;;;;;;11.53;7.97;;;;;;;2.06;72.39;101652.81;1727194;81;21156;-39
2020/12/02 05:34:53;;;;;;;12.50;7.83;;;;;;;2.06;72.77;101651.95;1732491;80;21213;-42
2020/12/02 05:37:39;;;;;;;13.30;8.48;;;;;;;2.06;72.78;101655.45;1729211;80;21717;-40
2020/12/02 05:40:09;;;;;;;11.88;8.25;;;;;;;2.06;72.68;101655.45;1705751;82;21265;-39
2020/12/02 05:42:41;;;;;;;12.85;8.03;;;;;;;2.07;72.61;101655.91;1670137;82;21181;-38
2020/12/02 05:45:17;;;;;;;;;;;;;;;2.07;72.50;101661.16;1718795;81;21196;-40
2020/12/02 05:47:47;;;;;;;9.13;6.37;;;;;;;2.07;72.48;101664.25;1725448;81;20178;-42
2020/12/02 05:50:17;;;;;;;10.70;6.92;;;;;;;2.07;72.51;101659.85;1689773;83;21300;-40
2020/12/02 05:52:46;;;;;;;13.60;7.92;;;;;;;2.05;72.50;101670.81;1706401;82;21172;-41
2020/12/02 05:55:28;;;;;;;10.82;7.42;;;;;;;2.03;72.59;101667.31;1697770;82;21177;-42
2020/12/02 05:58:12;;;;;;;11.10;7.95;;;;;;;2.02;72.67;101671.28;1717939;82;21682;-40
2020/12/02 06:00:40;;;;;;;14.70;8.95;;;;;;;1.99;72.59;101676.12;1719313;81;21185;-40
2020/12/02 06:03:10;;;;;;;9.75;7.28;;;;;;;1.98;72.60;101674.80;1725687;81;21153;-40
2020/12/02 06:05:38;;;;;;;13.68;7.55;;;;;;;1.98;72.70;101676.11;1723217;82;21149;-42
2020/12/02 06:08:07;;;;;;;9.80;7.60;;;;;;;1.98;72.84;101682.25;1736261;81;21165;-43
2020/12/02 06:10:46;;;;;;;11.80;7.17;;;;;;;1.95;72.92;101683.13;1746393;80;21169;-43
2020/12/02 06:13:38;;;;;;;11.88;8.05;;;;;;;1.95;72.97;101683.13;1737916;80;21141;-40
2020/12/02 06:16:06;;;;;;;12.80;8.03;;;;;;;1.98;73.05;101687.95;1741029;80;21149;-43
2020/12/02 06:18:36;;;;;;;10.98;8.05;;;;;;;2.00;73.07;101684.88;1707444;83;21586;-40
2020/12/02 06:21:03;;;;;;;10.75;7.33;;;;;;;2.01;73.18;101681.36;1717178;82;21692;-39
2020/12/02 06:23:55;;;;;;;11.10;8.23;;;;;;;2.02;73.14;101686.63;1712716;83;21485;-41
2020/12/02 06:26:40;;;;;;;11.85;6.83;;;;;;;2.02;73.23;101689.70;1710757;82;21169;-41
2020/12/02 06:29:35;;;;;;;11.73;7.70;;;;;;;2.07;73.37;101687.93;1799420;77;22852;-39
2020/12/02 06:32:20;;;;;;;12.93;8.65;;;;;;;2.05;73.42;101686.61;1783622;78;21137;-41
2020/12/02 06:34:49;;;;;;;12.33;8.73;;;;;;;2.08;73.42;101689.22;1781678;78;21582;-42
2020/12/02 06:37:24;;;;;;;13.10;8.65;;;;;;;2.10;73.42;101688.78;1783554;78;21149;-42
2020/12/02 06:39:56;;;;;;;11.73;8.40;;;;;;;2.11;73.37;101683.94;1782301;78;21129;-41
2020/12/02 06:42:36;;;;;;;13.50;8.18;;;;;;;2.13;73.42;101677.36;1748489;80;21203;-43
2020/12/02 06:45:18;;;;;;;12.20;8.10;;;;;;;2.14;73.35;101683.05;1764873;80;21149;-39
2020/12/02 06:47:56;;;;;;;14.63;8.95;;;;;;;2.15;73.29;101680.87;1757559;80;21149;-39
2020/12/02 06:50:29;;;;;;;14.25;9.20;;;;;;;2.14;73.32;101680.00;1749324;80;21129;-42
2020/12/02 06:53:20;;;;;;;14.20;9.35;;;;;;;2.15;73.50;101677.79;1725874;80;21169;-42
2020/12/02 06:55:48;;;;;;;12.05;8.78;;;;;;;2.17;73.44;101684.37;1756730;80;21134;-41
2020/12/02 06:58:18;;;;;;;13.05;9.00;;;;;;;2.20;73.26;101679.09;1728576;80;21165;-42
2020/12/02 07:00:56;;;;;;;14.70;9.58;;;;;;;2.18;73.18;101688.74;1756635;80;21524;-40
2020/12/02 07:03:35;;;;;;;13.35;9.33;;;;;;;2.16;73.14;101683.92;1755245;80;21126;-41
2020/12/02 07:06:20;;;;;;;12.75;9.00;;;;;;;2.14;73.12;101681.31;1740380;80;21405;-41
2020/12/02 07:09:01;;;;;;;14.35;9.18;;;;;;;2.13;73.05;101683.49;1757389;80;21146;-37
2020/12/02 07:11:29;;;;;;;15.60;9.58;;;;;;;2.16;73.04;101686.11;1752084;80;21272;-40
2020/12/02 07:13:56;;;;;;;12.68;9.00;;;;;;;2.17;73.05;101688.32;1758343;80;21144;-40
2020/12/02 07:16:34;;;;;;;13.18;9.05;;;;;;;2.18;73.10;101687.42;1673265;80;21176;-41
2020/12/02 07:19:12;;;;;;;14.65;9.08;;;;;;;2.18;73.04;101691.37;1752726;80;21161;-43
2020/12/02 07:21:53;;;;;;;15.38;9.78;;;;;;;2.14;72.92;101689.20;1753306;80;21141;-41
2020/12/02 07:24:24;;;;;;;;;;;;;;;2.14;72.88;101690.94;1725837;81;21149;-40
2020/12/02 07:26:52;;;;;;;17.00;9.95;;;;;;;2.14;72.91;101693.57;1726006;81;20163;-42
2020/12/02 07:29:22;;;;;;;14.55;10.00;;;;;;;2.14;72.81;101694.89;1706566;81;21742;-45
2020/12/02 07:32:08;;;;;;;13.98;8.93;;;;;;;2.13;72.82;101700.60;1745429;80;21142;-39
2020/12/02 07:34:36;;;;;;;14.28;8.90;;;;;;;2.14;72.77;101691.84;1737561;80;21106;-41
2020/12/02 07:37:07;;;;;;;15.30;10.10;;;;;;;2.15;72.78;101690.08;1741400;80;21550;-41
2020/12/02 07:39:51;;;;;;;15.70;10.63;;;;;;;2.13;72.77;101689.20;1743986;80;21792;-43
2020/12/02 07:42:31;;;;;;;18.40;11.05;;;;;;;2.13;72.80;101692.70;1722058;81;21191;-43
2020/12/02 07:45:19;;;;;;;17.32;10.15;;;;;;;2.12;72.82;101693.59;1741765;81;21134;-42
2020/12/02 07:48:03;;;;;;;16.02;9.95;;;;;;;2.13;72.87;101697.97;1743339;80;21153;-42
2020/12/02 07:50:46;;;;;;;12.65;9.10;;;;;;;2.12;72.93;101696.23;1742271;80;21117;-43
2020/12/02 07:53:36;;;;;;;17.45;10.65;;;;;;;2.12;73.01;101694.92;1744062;80;21681;-41
2020/12/02 07:56:05;;;;;;;14.80;9.55;;;;;;;2.13;73.02;101697.97;1743240;80;21140;-37
2020/12/02 07:58:37;;;;;;;14.68;10.03;;;;;;;2.15;72.99;101703.23;1715259;81;21180;-41
2020/12/02 08:01:22;;;;;;;15.98;10.55;;;;;;;2.14;72.91;101704.10;1741368;80;21141;-43
2020/12/02 08:03:51;;;;;;;16.85;10.85;;;;;;;2.13;72.94;101698.42;1743985;80;21190;-42
2020/12/02 08:06:45;;;;;;;16.82;10.68;;;;;;;2.15;72.96;101701.92;1740794;80;21163;-43
2020/12/02 08:09:12;;;;;;;19.20;11.63;;;;;;;2.13;72.87;101697.97;1741919;80;21160;-54
2020/12/02 08:11:58;;;;;;;15.98;10.32;;;;;;;2.15;72.86;101694.03;1743022;80;21110;-41
2020/12/02 08:14:42;;;;;;;16.50;10.18;;;;;;;2.19;72.82;101693.56;1799917;78;23082;-41
2020/12/02 08:17:22;;;;;;;17.60;11.33;;;;;;;2.13;72.87;101696.66;1779428;78;21271;-41
2020/12/02 08:20:00;;;;;;;13.60;9.70;;;;;;;2.13;72.93;101695.34;1802778;78;21137;-39
2020/12/02 08:22:42;;;;;;;17.57;12.15;;;;;;;2.16;72.86;101698.39;1800750;78;22230;-40
2020/12/02 08:25:45;;;;;;;15.72;11.20;;;;;;;2.16;72.86;101694.45;1807191;78;21114;-37
2020/12/02 08:28:21;;;;;;;13.83;9.23;;;;;;;2.19;72.93;101690.92;1804717;78;21597;-38
2020/12/02 08:31:14;;;;;;;16.23;11.10;;;;;;;2.19;73.09;101687.84;1746274;80;21638;-41
2020/12/02 08:34:10;;;;;;;20.10;12.07;;;;;;;2.20;73.30;101689.62;1768673;79;21146;-39
2020/12/02 08:36:42;;;;;;;16.27;11.12;;;;;;;2.22;73.25;101689.17;1767799;80;21098;-41
2020/12/02 08:39:31;;;;;;;19.00;12.65;;;;;;;2.30;73.22;101678.60;1802480;78;23156;-40
2020/12/02 08:42:01;;;;;;;17.30;11.68;;;;;;;2.28;73.28;101682.99;1779555;79;21137;-44
2020/12/02 08:44:29;;;;;;;17.00;10.85;;;;;;;2.29;73.30;101677.73;1745580;80;21148;-42
2020/12/02 08:47:09;;;;;;;18.32;10.15;;;;;;;2.32;73.31;101672.89;1746626;80;21316;-42
2020/12/02 08:49:37;;;;;;;18.70;11.68;;;;;;;2.33;73.13;101667.59;1723449;80;21180;-41
2020/12/02 08:52:05;;;;;;;16.07;11.75;;;;;;;2.31;72.96;101663.23;1749568;80;21185;-39
2020/12/02 08:54:32;;;;;;;17.10;11.48;;;;;;;2.30;73.01;101670.26;1745196;80;21446;-39
2020/12/02 08:57:08;;;;;;;14.58;10.58;;;;;;;2.31;73.03;101666.73;1741053;80;21166;-40
2020/12/02 09:00:09;;;;;;;20.57;12.15;;;;;;;2.32;73.07;101661.91;1748602;80;21965;-42
2020/12/02 09:03:32;;;;;;;21.77;11.83;;;;;;;2.37;72.93;101657.49;1799349;78;23569;-41
2020/12/02 09:06:00;;;;;;;18.23;12.15;;;;;;;2.35;72.79;101663.20;1776550;79;21188;-43
2020/12/02 09:08:27;;;;;;;18.07;10.80;;;;;;;2.35;72.87;101667.16;1775192;79;21141;-44
2020/12/02 09:10:55;;;;;;;16.20;11.35;;;;;;;2.37;72.95;101661.89;1737514;81;21174;-42
2020/12/02 09:13:22;;;;;;;16.90;11.15;;;;;;;2.36;73.01;101658.36;1736885;81;21164;-42
2020/12/02 09:15:50;;;;;;;20.27;12.10;;;;;;;2.40;73.01;101662.31;1743708;80;21145;-44
2020/12/02 09:18:18;;;;;;;15.90;10.28;;;;;;;2.41;72.96;101668.87;1710471;83;21145;-43
2020/12/02 09:20:46;;;;;;;19.67;12.03;;;;;;;2.45;72.94;101665.34;1712717;83;21160;-42
2020/12/02 09:23:13;;;;;;;18.48;12.28;;;;;;;2.48;72.96;101664.45;1722945;81;21758;-41
2020/12/02 09:25:40;;;;;;;17.23;10.75;;;;;;;2.49;72.87;101656.97;1721732;81;21539;-40
2020/12/02 09:28:08;;;;;;;19.82;12.53;;;;;;;2.50;72.81;101662.23;1720077;82;21363;-42
2020/12/02 09:30:36;;;;;;;19.10;12.00;;;;;;;2.50;72.86;101657.42;1724165;82;21164;-42
2020/12/02 09:33:04;;;;;;;16.87;11.63;;;;;;;2.48;72.90;101656.55;1723228;82;21129;-42
2020/12/02 09:35:33;;;;;;;14.25;10.25;;;;;;;2.47;72.87;101660.05;1720833;82;21588;-44
2020/12/02 09:38:01;;;;;;;18.35;11.33;;;;;;;2.48;72.82;101659.19;1725571;82;21137;-44
2020/12/02 09:40:29;;;;;;;15.23;9.93;;;;;;;2.49;72.78;101658.28;1707431;82;21173;-44
2020/12/02 09:43:27;;;;;;;17.65;11.12;;;;;;;2.48;72.82;101658.73;1707604;83;21128;-44
2020/12/02 09:46:14;;;;;;;15.35;10.30;;;;;;;2.49;72.79;101653.02;1724842;81;21851;-42
2020/12/02 09:48:41;;;;;;;15.75;11.00;;;;;;;2.49;72.81;101651.25;1713364;81;21651;-43
2020/12/02 09:51:22;;;;;;;16.52;11.35;;;;;;;2.49;72.91;101648.62;1719091;82;21153;-40
2020/12/02 09:53:53;;;;;;;17.30;11.48;;;;;;;2.48;72.98;101649.52;1739845;81;21153;-43
2020/12/02 09:56:20;;;;;;;18.40;11.35;;;;;;;2.48;73.04;101650.83;1717896;82;21526;-43
2020/12/02 09:58:48;;;;;;;14.70;10.90;;;;;;;2.47;72.91;101646.47;1719796;81;21128;-44
2020/12/02 10:01:19;;;;;;;16.17;11.25;;;;;;;2.48;72.89;101646.02;1719704;81;21181;-45
2020/12/02 10:04:17;;;;;;;16.93;11.75;;;;;;;2.46;72.87;101646.02;1703870;83;21177;-45
2020/12/02 10:07:16;;;;;;;18.95;12.60;;;;;;;2.48;72.98;101639.44;1704348;83;21154;-44
2020/12/02 10:10:03;;;;;;;21.53;12.83;;;;;;;2.49;73.01;101648.62;1664048;84;21129;-41
2020/12/02 10:13:08;;;;;;;14.83;10.80;;;;;;;2.54;73.16;101647.28;1793524;78;23107;-42
2020/12/02 10:15:47;;;;;;;17.45;12.18;;;;;;;2.49;73.24;101648.62;1775539;79;21526;-43
2020/12/02 10:18:29;;;;;;;14.73;9.58;;;;;;;2.50;73.30;101652.16;1769330;79;21619;-40
2020/12/02 10:21:17;;;;;;;17.15;10.60;;;;;;;2.52;73.22;101649.04;1737253;81;21113;-43
2020/12/02 10:24:04;;;;;;;17.85;11.88;;;;;;;2.52;73.22;101652.98;1712237;82;21165;-43
2020/12/02 10:26:55;;;;;;;15.28;11.57;;;;;;;2.50;73.22;101650.39;1724978;81;22104;-41
2020/12/02 10:29:43;;;;;;;18.12;12.73;;;;;;;2.51;73.23;101649.94;1720095;81;21138;-44
2020/12/02 10:32:22;;;;;;;16.73;12.47;;;;;;;2.54;73.11;101651.23;1736895;81;21141;-41
2020/12/02 10:34:50;;;;;;;17.60;12.25;;;;;;;2.54;73.08;101652.09;1736921;81;21146;-40
2020/12/02 10:37:26;;;;;;;16.17;11.90;;;;;;;2.53;73.05;101650.81;1737351;81;21913;-39
2020/12/02 10:39:53;;;;;;;18.10;13.05;;;;;;;2.55;73.08;101645.09;1721953;81;21130;-40
2020/12/02 10:42:41;;;;;;;17.55;12.37;;;;;;;2.55;73.16;101649.05;1711306;83;21164;-41
2020/12/02 10:45:19;;;;;;;14.55;10.13;;;;;;;2.54;73.23;101642.88;1740766;81;21136;-41
2020/12/02 10:48:17;;;;;;;18.57;12.55;;;;;;;2.55;73.24;101642.47;1723418;82;21109;-42
2020/12/02 10:50:45;;;;;;;17.82;12.75;;;;;;;2.55;73.24;101646.41;1719776;82;21645;-40
2020/12/02 10:53:16;;;;;;;18.00;12.55;;;;;;;2.55;73.27;101647.73;1723295;82;21156;-39
2020/12/02 10:55:46;;;;;;;15.50;11.12;;;;;;;2.55;73.40;101647.73;1722773;82;21882;-41
2020/12/02 10:58:24;;;;;;;20.25;13.20;;;;;;;2.54;73.40;101651.23;1719413;81;21169;-38
2020/12/02 11:00:59;;;;;;;18.00;11.73;;;;;;;2.54;73.58;101649.91;1737517;81;21138;-40
2020/12/02 11:03:32;;;;;;;16.77;11.33;;;;;;;2.56;73.61;101647.70;1713088;83;21181;-41
2020/12/02 11:06:30;;;;;;;14.73;10.30;;;;;;;2.57;73.65;101645.93;1734937;81;21150;-38
2020/12/02 11:09:31;;;;;;;17.00;12.53;;;;;;;2.58;73.70;101645.06;1720416;82;21187;-41
2020/12/02 11:12:39;;;;;;;16.50;11.65;;;;;;;2.61;73.67;101642.41;1665872;84;21226;-39
2020/12/02 11:15:35;;;;;;;19.87;12.35;;;;;;;2.66;73.79;101635.34;1804400;77;22936;-45
2020/12/02 11:18:31;;;;;;;16.35;12.13;;;;;;;2.65;73.78;101641.51;1780309;78;21161;-40
2020/12/02 11:21:24;;;;;;;17.23;12.33;;;;;;;2.67;73.75;101638.42;1776117;78;21134;-40
2020/12/02 11:24:18;;;;;;;18.75;11.95;;;;;;;2.68;73.79;101632.70;1777073;78;21141;-42
2020/12/02 11:26:47;;;;;;;17.37;12.30;;;;;;;2.70;73.73;101635.77;1780959;78;21707;-40
2020/12/02 11:29:17;;;;;;;17.77;11.38;;;;;;;2.70;73.62;101630.49;1773817;78;21169;-41
2020/12/02 11:32:14;;;;;;;17.27;11.93;;;;;;;2.70;73.67;101633.13;1773943;78;21141;-42
2020/12/02 11:34:48;;;;;;;17.85;12.05;;;;;;;2.73;73.65;101623.01;1777100;78;21474;-41
2020/12/02 11:37:37;;;;;;;17.42;12.25;;;;;;;2.77;73.64;101621.66;1777476;78;21121;-44
2020/12/02 11:40:12;;;;;;;20.25;12.82;;;;;;;2.78;73.58;101628.66;1717626;81;21155;-42
2020/12/02 11:42:53;;;;;;;14.95;11.15;;;;;;;2.80;73.59;101626.03;1736211;80;21848;-38
2020/12/02 11:45:36;;;;;;;15.30;11.22;;;;;;;2.79;73.54;101626.89;1724680;81;21113;-40
2020/12/02 11:48:44;;;;;;;15.00;10.75;;;;;;;2.76;73.50;101627.80;1727101;81;21162;-38
2020/12/02 11:51:29;;;;;;;13.70;10.55;;;;;;;2.78;73.32;101627.80;1711196;82;21149;-40
2020/12/02 11:53:59;;;;;;;20.57;13.80;;;;;;;2.78;73.32;101628.66;1701006;83;21483;-41
2020/12/02 11:56:40;;;;;;;16.23;11.55;;;;;;;2.77;72.99;101630.88;1726153;81;21138;-41
2020/12/02 11:59:26;;;;;;;15.68;11.57;;;;;;;2.77;72.99;101630.88;1727422;82;21170;-40
2020/12/02 12:02:17;;;;;;;15.48;11.55;;;;;;;2.78;73.18;101624.71;1707267;82;21284;-38
2020/12/02 12:05:20;;;;;;;15.28;11.95;;;;;;;2.80;73.25;101622.08;1707716;83;21154;-43
2020/12/02 12:08:09;;;;;;;14.83;10.23;;;;;;;2.80;73.38;101626.89;1707525;83;21153;-39